createdAt,value
2018-11-28T00:01:19.721Z,2.80
2018-11-28T00:03:48.919Z,2.80
2018-11-28T00:06:19.002Z,2.80
2018-11-28T00:08:48.241Z,2.80
2018-11-28T00:11:20.303Z,2.80
2018-11-28T00:13:49.526Z,2.80
2018-11-28T00:16:20.847Z,2.80
2018-11-28T00:18:50.247Z,2.80
2018-11-28T00:21:20.259Z,2.80
2018-11-28T00:23:49.491Z,2.90
2018-11-28T00:26:19.617Z,2.90
2018-11-28T00:28:48.817Z,2.90
2018-11-28T00:31:18.185Z,3.00
2018-11-28T00:33:48.093Z,3.00
2018-11-28T00:36:17.326Z,3.00
2018-11-28T00:38:46.826Z,3.10
2018-11-28T00:41:16.213Z,3.10
2018-11-28T00:43:46.351Z,3.20
2018-11-28T00:46:15.532Z,3.20
2018-11-28T00:48:44.742Z,3.20
2018-11-28T00:51:13.982Z,3.10
2018-11-28T00:53:44.128Z,3.10
2018-11-28T00:56:13.552Z,3.10
2018-11-28T00:58:43.396Z,3.20
2018-11-28T01:01:14.240Z,3.20
2018-11-28T01:03:43.742Z,3.10
2018-11-28T01:06:13.597Z,3.20
2018-11-28T01:08:43.075Z,3.20
2018-11-28T01:11:13.148Z,3.20
2018-11-28T01:13:42.367Z,3.20
2018-11-28T01:16:11.535Z,3.20
2018-11-28T01:18:41.510Z,3.20
2018-11-28T01:21:10.697Z,3.20
2018-11-28T01:23:39.887Z,3.00
2018-11-28T01:26:09.678Z,2.80
2018-11-28T01:28:39.055Z,2.70
2018-11-28T01:31:08.538Z,2.70
2018-11-28T01:33:38.246Z,2.70
2018-11-28T01:36:07.374Z,2.80
2018-11-28T01:38:37.103Z,2.70
2018-11-28T01:41:06.394Z,2.60
2018-11-28T01:43:35.609Z,2.50
2018-11-28T01:46:05.750Z,2.60
2018-11-28T01:48:35.789Z,2.60
2018-11-28T01:51:05.649Z,2.60
2018-11-28T01:53:34.832Z,2.60
2018-11-28T01:56:04.112Z,2.60
2018-11-28T01:58:33.284Z,2.70
2018-11-28T02:01:02.602Z,2.70
2018-11-28T02:03:32.450Z,2.80
2018-11-28T02:06:02.753Z,2.80
2018-11-28T02:08:32.773Z,2.90
2018-11-28T02:11:03.055Z,3.00
2018-11-28T02:13:32.265Z,2.90
2018-11-28T02:16:02.015Z,3.00
2018-11-28T02:18:31.203Z,3.00
2018-11-28T02:21:02.427Z,3.00
2018-11-28T02:23:31.639Z,3.00
2018-11-28T02:26:00.841Z,3.00
2018-11-28T02:28:30.138Z,3.00
2018-11-28T02:30:59.320Z,3.10
2018-11-28T02:33:28.527Z,3.10
2018-11-28T02:35:57.726Z,3.00
2018-11-28T02:38:27.089Z,3.00
2018-11-28T02:40:56.892Z,3.00
2018-11-28T02:43:28.166Z,2.90
2018-11-28T02:46:08.753Z,2.80
2018-11-28T02:48:38.015Z,2.70
2018-11-28T02:51:07.285Z,2.70
2018-11-28T02:53:36.504Z,2.60
2018-11-28T02:56:06.023Z,2.50
2018-11-28T02:58:35.272Z,2.40
2018-11-28T03:01:04.592Z,2.40
2018-11-28T03:03:33.833Z,2.40
2018-11-28T03:06:04.661Z,2.40
2018-11-28T03:08:33.861Z,2.40
2018-11-28T03:11:03.359Z,2.30
2018-11-28T03:13:32.576Z,2.40
2018-11-28T03:16:06.069Z,2.40
2018-11-28T03:18:35.266Z,2.40
2018-11-28T03:21:05.465Z,2.30
2018-11-28T03:23:36.126Z,2.30
2018-11-28T03:26:05.703Z,2.30
2018-11-28T03:28:35.181Z,2.20
2018-11-28T03:31:05.116Z,2.10
2018-11-28T03:33:34.339Z,2.10
2018-11-28T03:36:03.640Z,2.00
2018-11-28T03:38:33.114Z,2.00
2018-11-28T03:41:02.391Z,2.00
2018-11-28T03:43:40.676Z,2.10
2018-11-28T03:46:09.884Z,2.10
2018-11-28T03:48:39.348Z,2.20
2018-11-28T03:51:08.563Z,2.10
2018-11-28T03:53:37.781Z,2.10
2018-11-28T03:56:07.028Z,2.00
2018-11-28T03:58:37.203Z,1.90
2018-11-28T04:01:06.432Z,1.90
2018-11-28T04:03:36.236Z,1.90
2018-11-28T04:06:06.773Z,1.90
2018-11-28T04:08:35.983Z,1.80
2018-11-28T04:11:05.443Z,1.80
2018-11-28T04:13:34.893Z,1.80
2018-11-28T04:16:05.123Z,1.70
2018-11-28T04:18:35.434Z,1.60
2018-11-28T04:21:04.645Z,1.50
2018-11-28T04:23:33.857Z,1.50
2018-11-28T04:26:03.425Z,1.50
2018-11-28T04:28:32.618Z,1.60
2018-11-28T04:31:02.926Z,1.60
2018-11-28T04:33:32.136Z,1.60
2018-11-28T04:36:01.355Z,1.60
2018-11-28T04:38:31.029Z,1.60
2018-11-28T04:41:01.917Z,1.50
2018-11-28T04:43:32.165Z,1.60
2018-11-28T04:46:01.515Z,1.70
2018-11-28T04:48:32.570Z,1.70
2018-11-28T04:51:01.760Z,1.70
2018-11-28T04:53:31.807Z,1.70
2018-11-28T04:56:01.028Z,1.80
2018-11-28T04:58:31.168Z,1.90
2018-11-28T05:01:00.403Z,1.90
2018-11-28T05:03:30.844Z,1.80
2018-11-28T05:06:00.072Z,1.80
2018-11-28T05:08:30.592Z,1.80
2018-11-28T05:11:00.364Z,1.80
2018-11-28T05:13:30.322Z,1.80
2018-11-28T05:15:59.518Z,1.80
2018-11-28T05:18:30.056Z,1.80
2018-11-28T05:20:59.507Z,1.80
2018-11-28T05:23:30.806Z,1.80
2018-11-28T05:26:00.533Z,1.80
2018-11-28T05:28:32.355Z,1.80
2018-11-28T05:31:03.069Z,1.70
2018-11-28T11:15:42.662Z,6.40
2018-11-28T11:18:17.960Z,6.50
2018-11-28T11:23:33.239Z,6.60
2018-11-28T11:26:03.496Z,6.60
2018-11-28T11:28:37.367Z,6.50
2018-11-28T11:31:12.254Z,6.40
2018-11-28T11:34:12.804Z,6.50
2018-11-28T11:47:10.482Z,6.50
2018-11-28T12:37:46.648Z,7.10
2018-11-28T13:12:38.960Z,7.50
2018-11-28T13:52:48.092Z,8.00
2018-11-28T13:55:42.337Z,8.10
2018-11-28T13:58:02.245Z,8.10
2018-11-28T14:00:51.026Z,8.10
2018-11-28T14:03:20.672Z,8.00
2018-11-28T14:05:50.203Z,8.00
2018-11-28T14:08:19.479Z,8.00
2018-11-28T14:10:51.394Z,7.90
2018-11-28T14:13:25.807Z,7.80
2018-11-28T14:16:08.022Z,7.80
2018-11-28T14:18:38.445Z,7.80
2018-11-28T14:21:09.485Z,7.80
2018-11-28T14:23:39.165Z,7.70
2018-11-28T14:26:08.573Z,7.50
2018-11-28T14:28:37.941Z,7.30
2018-11-28T14:31:07.667Z,7.30
2018-11-28T14:33:37.656Z,7.30
2018-11-28T14:36:07.010Z,7.30
2018-11-28T14:38:36.314Z,7.20
2018-11-28T14:41:07.213Z,7.10
2018-11-28T14:43:36.461Z,7.10
2018-11-28T14:46:06.579Z,6.90
2018-11-28T14:48:35.833Z,6.90
2018-11-28T14:51:05.714Z,6.80
2018-11-28T14:53:36.452Z,6.80
2018-11-28T14:56:06.469Z,6.80
2018-11-28T14:58:36.199Z,6.70
2018-11-28T15:01:06.032Z,6.70
2018-11-28T15:03:35.579Z,6.70
2018-11-28T15:06:26.474Z,6.60
2018-11-28T15:09:03.158Z,6.60
2018-11-28T15:11:33.086Z,6.60
2018-11-28T15:14:03.464Z,6.60
2018-11-28T15:16:32.722Z,6.60
2018-11-28T15:19:02.078Z,6.50
2018-11-28T15:21:31.396Z,6.50
2018-11-28T15:24:05.977Z,6.40
2018-11-28T15:26:35.932Z,6.40
2018-11-28T15:29:06.826Z,6.30
2018-11-28T15:31:36.569Z,6.30
2018-11-28T15:34:09.333Z,6.20
2018-11-28T15:36:39.500Z,6.10
2018-11-28T15:39:10.001Z,6.10
2018-11-28T15:41:40.595Z,6.10
2018-11-28T15:44:10.703Z,6.00
2018-11-28T15:46:41.574Z,6.00
2018-11-28T15:49:10.797Z,5.90
2018-11-28T15:51:40.554Z,5.80
2018-11-28T15:54:09.882Z,5.80
2018-11-28T15:56:39.135Z,5.70
2018-11-28T15:59:10.852Z,5.80
2018-11-28T16:01:42.102Z,5.80
2018-11-28T16:04:11.656Z,5.70
2018-11-28T16:06:41.011Z,5.60
2018-11-28T16:09:16.003Z,5.60
2018-11-28T16:11:47.432Z,5.50
2018-11-28T16:14:16.922Z,5.50
2018-11-28T16:16:48.230Z,5.50
2018-11-28T16:19:21.096Z,5.40
2018-11-28T16:21:54.465Z,5.30
2018-11-28T16:24:24.561Z,5.30
2018-11-28T16:26:57.952Z,5.30
2018-11-28T16:30:27.099Z,5.20
2018-11-28T16:32:58.762Z,5.20
2018-11-28T16:35:30.338Z,5.20
2018-11-28T16:38:01.904Z,5.20
2018-11-28T16:40:35.513Z,5.10
2018-11-28T16:43:05.369Z,5.00
2018-11-28T16:45:37.696Z,5.00
2018-11-28T16:48:07.588Z,4.90
2018-11-28T16:50:39.795Z,4.80
2018-11-28T16:53:09.025Z,4.80
2018-11-28T16:55:39.855Z,4.80
2018-11-28T16:58:09.768Z,4.80
2018-11-28T17:00:42.112Z,4.80
2018-11-28T17:03:12.260Z,4.80
2018-11-28T17:05:44.222Z,4.80
2018-11-28T17:08:13.962Z,4.80
2018-11-28T17:10:45.760Z,4.80
2018-11-28T17:13:16.177Z,4.80
2018-11-28T17:15:45.745Z,4.80
2018-11-28T17:18:15.653Z,4.80
2018-11-28T17:20:50.965Z,4.80
2018-11-28T17:23:22.797Z,4.70
2018-11-28T17:25:58.709Z,4.70
2018-11-28T17:28:28.681Z,4.70
2018-11-28T17:30:59.585Z,4.60
2018-11-28T17:33:31.044Z,4.70
2018-11-28T17:36:03.042Z,4.60
2018-11-28T17:38:35.334Z,4.60
2018-11-28T17:41:10.035Z,4.50
2018-11-28T17:43:46.357Z,4.40
2018-11-28T17:46:19.063Z,4.30
2018-11-28T17:48:49.365Z,4.20
2018-11-28T17:51:21.343Z,4.10
2018-11-28T17:53:56.285Z,4.00
2018-11-28T17:56:27.055Z,4.00
2018-11-28T17:59:10.029Z,4.10
2018-11-28T18:01:40.113Z,4.10
2018-11-28T18:04:10.250Z,3.90
2018-11-28T18:06:42.444Z,3.80
2018-11-28T18:09:13.493Z,3.70
2018-11-28T18:11:43.947Z,3.60
2018-11-28T18:14:14.527Z,3.60
2018-11-28T18:16:43.860Z,3.60
2018-11-28T18:19:13.441Z,3.50
2018-11-28T18:21:42.994Z,3.40
2018-11-28T18:24:14.007Z,3.20
2018-11-28T18:26:45.333Z,3.20
2018-11-28T18:29:14.710Z,3.20
2018-11-28T18:31:45.313Z,3.20
2018-11-28T18:34:15.403Z,3.20
2018-11-28T18:36:45.474Z,3.30
2018-11-28T18:39:17.075Z,3.40
2018-11-28T18:41:48.323Z,3.40
2018-11-28T18:44:20.530Z,3.50
2018-11-28T18:46:50.129Z,3.50
2018-11-28T18:49:23.858Z,3.40
2018-11-28T18:51:53.533Z,3.50
2018-11-28T18:54:29.145Z,3.50
2018-11-28T18:57:04.509Z,3.50
2018-11-28T18:59:34.465Z,3.50
2018-11-28T19:02:11.831Z,3.50
2018-11-28T19:04:42.136Z,3.50
2018-11-28T19:07:12.223Z,3.40
2018-11-28T19:09:47.086Z,3.40
2018-11-28T19:12:17.946Z,3.40
2018-11-28T19:14:48.635Z,3.40
2018-11-28T19:17:20.021Z,3.40
2018-11-28T19:19:49.275Z,3.40
2018-11-28T19:22:20.910Z,3.30
2018-11-28T19:24:51.256Z,3.30
2018-11-28T19:27:20.533Z,3.30
2018-11-28T19:29:50.392Z,3.20
2018-11-28T19:32:24.028Z,3.20
2018-11-28T19:34:54.313Z,3.00
2018-11-28T19:37:24.692Z,2.90
2018-11-28T19:39:55.647Z,2.90
2018-11-28T19:42:25.425Z,2.80
2018-11-28T19:44:55.427Z,2.70
2018-11-28T19:47:26.847Z,2.60
2018-11-28T19:49:57.848Z,2.50
2018-11-28T19:52:28.667Z,2.50
2018-11-28T19:55:00.782Z,2.50
2018-11-28T19:57:32.995Z,2.40
2018-11-28T20:00:09.380Z,2.40
2018-11-28T20:02:40.596Z,2.30
2018-11-28T20:05:12.882Z,2.30
2018-11-28T20:07:44.990Z,2.30
2018-11-28T20:10:22.475Z,2.40
2018-11-28T20:12:52.808Z,2.40
2018-11-28T20:15:28.195Z,2.50
2018-11-28T20:17:58.527Z,2.60
2018-11-28T20:20:28.100Z,2.70
2018-11-28T20:23:00.289Z,2.70
2018-11-28T20:25:29.767Z,2.70
2018-11-28T20:28:01.814Z,2.80
2018-11-28T20:30:34.090Z,2.90
2018-11-28T20:33:05.634Z,3.00
2018-11-28T20:35:35.131Z,3.10
2018-11-28T20:38:04.581Z,3.30
2018-11-28T20:40:37.327Z,3.30
2018-11-28T20:43:08.285Z,3.40
2018-11-28T20:45:37.904Z,3.30
2018-11-28T20:48:08.015Z,3.60
2018-11-28T20:50:38.232Z,3.30
2018-11-28T20:53:13.764Z,3.30
2018-11-28T20:55:43.870Z,3.40
2018-11-28T20:58:13.360Z,3.40
2018-11-28T21:00:45.151Z,3.50
2018-11-28T21:03:15.189Z,3.60
2018-11-28T21:05:45.296Z,3.70
2018-11-28T21:08:15.358Z,3.70
2018-11-28T21:10:45.374Z,3.70
2018-11-28T21:13:17.983Z,3.80
2018-11-28T21:15:47.816Z,3.80
2018-11-28T21:18:17.263Z,3.80
2018-11-28T21:20:48.564Z,3.80
2018-11-28T21:23:19.879Z,3.90
2018-11-28T21:25:51.019Z,3.90
2018-11-28T21:28:24.217Z,4.00
2018-11-28T21:30:53.566Z,3.80
2018-11-28T21:33:23.092Z,3.70
2018-11-28T21:35:53.425Z,3.80
2018-11-28T21:38:22.782Z,3.70
2018-11-28T21:40:52.001Z,3.70
2018-11-28T21:43:21.384Z,3.70
2018-11-28T21:45:50.976Z,3.70
2018-11-28T21:48:20.556Z,3.80
2018-11-28T21:50:50.085Z,3.80
2018-11-28T21:53:19.718Z,3.80
2018-11-28T21:55:50.029Z,3.80
2018-11-28T21:58:20.820Z,3.80
2018-11-28T22:00:51.243Z,3.80
2018-11-28T22:03:21.573Z,3.90
2018-11-28T22:05:52.071Z,3.90
2018-11-28T22:08:22.324Z,4.00
2018-11-28T22:10:52.279Z,4.00
2018-11-28T22:13:22.876Z,4.10
2018-11-28T22:15:52.470Z,4.10
2018-11-28T22:18:21.676Z,4.20
2018-11-28T22:20:50.968Z,4.30
2018-11-28T22:23:22.705Z,4.30
2018-11-28T22:25:51.985Z,4.40
2018-11-28T22:28:22.462Z,4.40
2018-11-28T22:30:52.428Z,4.40
2018-11-28T22:33:24.493Z,4.40
2018-11-28T22:35:54.283Z,4.40
2018-11-28T22:38:24.577Z,4.30
2018-11-28T22:40:55.863Z,4.40
2018-11-28T22:43:26.441Z,4.40
2018-11-28T22:45:56.615Z,4.40
2018-11-28T22:48:26.736Z,4.40
2018-11-28T22:51:00.070Z,4.40
2018-11-28T22:53:30.225Z,4.40
2018-11-28T22:56:00.481Z,4.40
2018-11-28T22:58:30.338Z,4.50
2018-11-28T23:01:08.932Z,4.50
2018-11-28T23:03:39.886Z,4.50
2018-11-28T23:06:09.419Z,4.40
2018-11-28T23:08:39.822Z,4.40
2018-11-28T23:11:12.997Z,4.50
2018-11-28T23:13:49.260Z,4.50
2018-11-28T23:16:20.086Z,4.50
2018-11-28T23:18:50.748Z,4.50
2018-11-28T23:21:20.124Z,4.50
2018-11-28T23:23:49.995Z,4.50
2018-11-28T23:26:21.307Z,4.40
2018-11-28T23:28:51.074Z,4.30
2018-11-28T23:31:21.842Z,4.30
2018-11-28T23:33:52.416Z,4.30
2018-11-28T23:36:25.764Z,4.40
2018-11-28T23:38:56.331Z,4.30
2018-11-28T23:41:27.650Z,4.30
2018-11-28T23:43:56.977Z,4.20
2018-11-28T23:46:26.974Z,4.20
2018-11-28T23:48:56.190Z,4.30
2018-11-28T23:51:26.491Z,4.30
2018-11-28T23:53:55.721Z,4.30
2018-11-28T23:56:26.241Z,4.10
2018-11-28T23:58:55.443Z,4.10
